createdAt,value
2022-10-31T00:00:02.304Z,6.20
2022-10-31T00:02:31.761Z,6.88
2022-10-31T00:05:02.934Z,7.50
2022-10-31T00:07:32.431Z,7.60
2022-10-31T00:10:01.128Z,7.45
2022-10-31T00:12:35.124Z,8.27
2022-10-31T00:15:04.628Z,7.20
2022-10-31T00:17:33.181Z,8.07
2022-10-31T00:20:02.986Z,8.27
2022-10-31T00:22:31.821Z,8.30
2022-10-31T00:25:01.285Z,8.38
2022-10-31T00:27:29.959Z,8.50
2022-10-31T00:30:01.172Z,8.23
2022-10-31T00:32:32.516Z,8.15
2022-10-31T00:35:02.833Z,8.45
2022-10-31T00:37:31.809Z,9.48
2022-10-31T00:40:02.372Z,8.60
2022-10-31T00:42:34.616Z,8.77
2022-10-31T00:45:08.271Z,8.68
2022-10-31T00:47:37.300Z,8.93
2022-10-31T00:50:10.378Z,8.93
2022-10-31T00:52:39.187Z,8.30
2022-10-31T00:55:10.287Z,9.05
2022-10-31T00:57:38.851Z,8.88
2022-10-31T01:00:13.518Z,9.05
2022-10-31T01:02:42.669Z,9.25
2022-10-31T01:05:13.169Z,8.55
2022-10-31T01:07:43.972Z,8.30
2022-10-31T01:10:15.190Z,8.52
2022-10-31T01:12:52.169Z,9.10
2022-10-31T01:15:24.364Z,8.05
2022-10-31T01:17:54.548Z,8.52
2022-10-31T01:20:25.422Z,8.68
2022-10-31T01:22:54.226Z,8.07
2022-10-31T01:25:25.409Z,7.78
2022-10-31T01:27:53.747Z,8.00
2022-10-31T01:30:27.772Z,8.40
2022-10-31T01:32:56.871Z,8.88
2022-10-31T01:35:26.756Z,8.35
2022-10-31T01:37:55.436Z,8.68
2022-10-31T01:40:25.780Z,8.30
2022-10-31T01:42:54.923Z,8.63
2022-10-31T01:45:25.757Z,9.60
2022-10-31T01:47:56.335Z,8.82
2022-10-31T01:50:35.072Z,9.75
2022-10-31T01:53:07.620Z,9.65
2022-10-31T01:55:40.876Z,9.77
2022-10-31T01:58:15.545Z,10.75
2022-10-31T02:00:49.030Z,10.10
2022-10-31T02:03:19.097Z,10.35
2022-10-31T02:05:54.687Z,9.70
2022-10-31T02:08:28.720Z,10.30
2022-10-31T02:11:02.858Z,11.18
2022-10-31T02:13:37.456Z,10.93
2022-10-31T02:16:08.372Z,11.43
2022-10-31T02:18:38.518Z,12.00
2022-10-31T02:21:20.231Z,11.68
2022-10-31T02:24:33.305Z,11.80
2022-10-31T02:27:49.207Z,12.13
2022-10-31T02:30:21.126Z,12.52
2022-10-31T02:33:25.818Z,12.05
2022-10-31T02:36:08.156Z,12.27
2022-10-31T02:38:52.267Z,13.52
2022-10-31T02:41:35.327Z,12.90
2022-10-31T02:44:14.612Z,12.50
2022-10-31T02:46:51.269Z,12.68
2022-10-31T02:49:33.638Z,12.07
2022-10-31T02:52:16.215Z,13.05
2022-10-31T02:54:47.770Z,11.90
2022-10-31T02:57:20.242Z,13.80
2022-10-31T02:59:55.458Z,12.40
2022-10-31T03:02:46.551Z,12.85
2022-10-31T03:05:43.154Z,13.70
2022-10-31T03:08:24.085Z,13.23
2022-10-31T03:11:00.143Z,14.25
2022-10-31T03:13:39.076Z,12.93
2022-10-31T03:16:15.618Z,14.90
2022-10-31T03:18:48.963Z,15.13
2022-10-31T03:21:24.174Z,14.77
2022-10-31T03:23:57.552Z,15.63
2022-10-31T03:26:27.455Z,15.50
2022-10-31T03:29:01.671Z,16.25
2022-10-31T03:31:34.453Z,17.23
2022-10-31T03:34:06.624Z,16.70
2022-10-31T03:36:40.858Z,19.55
2022-10-31T03:39:15.187Z,18.50
2022-10-31T03:41:50.410Z,18.58
2022-10-31T03:44:22.357Z,18.88
2022-10-31T03:46:52.276Z,20.15
2022-10-31T03:49:21.268Z,20.70
2022-10-31T03:52:03.991Z,19.52
2022-10-31T03:54:42.993Z,21.23
2022-10-31T03:57:24.151Z,19.98
2022-10-31T04:00:00.881Z,20.60
2022-10-31T04:02:38.777Z,22.30
2022-10-31T04:05:12.934Z,23.77
2022-10-31T04:07:48.518Z,25.80
2022-10-31T04:10:22.861Z,26.25
2022-10-31T04:13:03.912Z,28.33
2022-10-31T04:15:36.304Z,29.10
2022-10-31T04:18:09.145Z,30.75
2022-10-31T04:20:42.133Z,31.35
2022-10-31T04:23:22.426Z,32.58
2022-10-31T04:25:52.018Z,32.67
2022-10-31T04:28:23.762Z,32.90
2022-10-31T04:30:55.136Z,33.80
2022-10-31T04:33:26.381Z,35.22
2022-10-31T04:35:55.067Z,36.67
2022-10-31T04:38:27.924Z,34.42
2022-10-31T04:40:56.320Z,37.13
2022-10-31T04:43:25.617Z,36.55
2022-10-31T04:45:55.469Z,37.17
2022-10-31T04:48:29.005Z,38.53
2022-10-31T04:51:02.739Z,37.83
2022-10-31T04:53:35.514Z,38.75
2022-10-31T04:56:04.483Z,37.75
2022-10-31T04:58:35.440Z,37.65
2022-10-31T05:01:04.745Z,36.33
2022-10-31T05:03:33.954Z,38.10
2022-10-31T05:06:02.407Z,37.42
2022-10-31T05:08:34.874Z,37.55
2022-10-31T05:11:06.154Z,36.60
2022-10-31T05:13:36.860Z,38.28
2022-10-31T05:16:12.423Z,35.00
2022-10-31T05:18:42.426Z,36.10
2022-10-31T05:21:11.221Z,36.60
2022-10-31T05:23:45.852Z,37.22
2022-10-31T05:26:17.079Z,35.40
2022-10-31T05:28:45.573Z,36.42
2022-10-31T05:31:14.236Z,37.65
2022-10-31T05:33:43.813Z,35.13
2022-10-31T05:36:13.064Z,36.25
2022-10-31T05:38:46.151Z,32.95
2022-10-31T05:41:15.757Z,34.35
2022-10-31T05:43:48.032Z,35.58
2022-10-31T05:46:17.528Z,34.63
2022-10-31T05:48:47.779Z,36.65
2022-10-31T05:51:28.317Z,37.33
2022-10-31T05:53:59.581Z,35.85
2022-10-31T05:56:29.271Z,39.10
2022-10-31T05:58:58.678Z,38.20
2022-10-31T06:01:27.738Z,38.03
2022-10-31T06:04:00.024Z,34.42
2022-10-31T06:06:34.964Z,35.95
2022-10-31T06:09:08.385Z,36.22
2022-10-31T06:11:39.259Z,33.72
2022-10-31T06:14:09.175Z,36.05
2022-10-31T06:16:43.657Z,34.42
2022-10-31T06:19:12.831Z,34.37
2022-10-31T06:21:42.923Z,33.92
2022-10-31T06:24:14.138Z,34.78
2022-10-31T06:26:45.716Z,34.15
2022-10-31T06:29:14.282Z,33.95
2022-10-31T06:31:44.218Z,33.17
2022-10-31T06:34:12.811Z,33.05
2022-10-31T06:36:44.184Z,32.05
2022-10-31T06:39:15.181Z,32.38
2022-10-31T06:41:44.963Z,35.38
2022-10-31T06:44:16.367Z,33.50
2022-10-31T06:46:45.029Z,32.15
2022-10-31T06:49:25.484Z,33.50
2022-10-31T06:54:39.110Z,34.50
2022-10-31T06:57:08.133Z,37.28
2022-10-31T06:59:38.472Z,36.97
2022-10-31T07:02:26.355Z,37.85
2022-10-31T07:04:56.025Z,36.88
2022-10-31T07:07:25.333Z,39.92
2022-10-31T07:09:57.609Z,40.95
2022-10-31T07:15:17.563Z,42.85
2022-10-31T07:20:40.035Z,44.67
2022-10-31T07:23:11.068Z,44.92
2022-10-31T07:25:50.024Z,44.47
2022-10-31T07:28:18.920Z,45.40
2022-10-31T07:30:53.599Z,47.40
2022-10-31T07:33:23.831Z,47.95
2022-10-31T07:35:52.880Z,48.95
2022-10-31T07:38:22.594Z,50.63
2022-10-31T07:40:55.253Z,51.78
2022-10-31T07:43:24.633Z,50.35
2022-10-31T07:45:56.229Z,53.70
2022-10-31T07:48:24.864Z,55.15
2022-10-31T07:50:53.621Z,56.30
2022-10-31T07:53:24.572Z,58.47
2022-10-31T07:55:55.094Z,58.28
2022-10-31T07:58:23.525Z,58.78
2022-10-31T08:00:52.613Z,59.28
2022-10-31T08:03:26.303Z,60.13
2022-10-31T08:05:55.596Z,60.58
2022-10-31T08:08:33.433Z,62.15
2022-10-31T08:11:10.620Z,60.88
2022-10-31T08:13:47.251Z,62.97
2022-10-31T08:16:18.815Z,61.63
2022-10-31T08:18:53.187Z,61.47
2022-10-31T08:21:23.345Z,61.45
2022-10-31T08:23:54.448Z,58.92
2022-10-31T08:26:24.801Z,60.47
2022-10-31T08:28:56.570Z,57.80
2022-10-31T08:31:33.152Z,55.92
2022-10-31T08:34:05.839Z,52.35
2022-10-31T08:36:36.208Z,50.65
2022-10-31T08:39:06.244Z,49.53
2022-10-31T08:41:38.809Z,47.95
2022-10-31T08:44:08.128Z,46.42
2022-10-31T08:46:36.850Z,44.97
2022-10-31T08:49:05.596Z,44.38
2022-10-31T08:51:34.508Z,43.30
2022-10-31T08:54:03.345Z,43.35
2022-10-31T08:56:38.789Z,42.80
2022-10-31T09:01:37.833Z,40.47
2022-10-31T09:04:06.351Z,42.05
2022-10-31T09:06:35.167Z,41.42
2022-10-31T09:09:05.850Z,40.55
2022-10-31T09:11:37.190Z,37.72
2022-10-31T09:14:05.683Z,38.28
2022-10-31T09:16:35.494Z,37.60
2022-10-31T09:19:10.336Z,35.65
2022-10-31T09:21:40.300Z,33.28
2022-10-31T09:24:10.291Z,32.97
2022-10-31T09:26:41.382Z,30.90
2022-10-31T09:29:11.283Z,27.95
2022-10-31T09:31:45.053Z,27.65
2022-10-31T09:34:21.905Z,26.52
2022-10-31T09:36:52.563Z,27.13
2022-10-31T09:39:21.915Z,25.98
2022-10-31T09:42:11.551Z,23.00
2022-10-31T09:44:54.829Z,21.95
2022-10-31T09:47:49.798Z,20.77
2022-10-31T09:50:24.418Z,20.73
2022-10-31T09:53:03.202Z,19.52
2022-10-31T09:55:41.182Z,19.15
2022-10-31T09:58:21.702Z,18.27
2022-10-31T10:00:52.930Z,16.85
2022-10-31T10:03:34.743Z,18.17
2022-10-31T10:06:14.273Z,17.75
2022-10-31T10:08:43.376Z,17.80
2022-10-31T10:11:31.727Z,15.30
2022-10-31T10:14:34.994Z,14.32
2022-10-31T10:17:16.917Z,14.13
2022-10-31T10:20:14.945Z,14.68
2022-10-31T10:22:52.654Z,15.52
2022-10-31T10:25:25.788Z,14.43
2022-10-31T10:28:11.560Z,14.98
2022-10-31T10:33:21.814Z,13.52
2022-10-31T10:36:00.410Z,13.75
2022-10-31T10:38:39.291Z,13.30
2022-10-31T10:41:16.318Z,13.43
2022-10-31T10:43:44.331Z,12.57
2022-10-31T10:46:54.550Z,13.40
2022-10-31T10:49:35.892Z,12.05
2022-10-31T10:52:39.626Z,11.95
2022-10-31T10:55:21.659Z,11.77
2022-10-31T10:58:02.982Z,12.27
2022-10-31T11:00:37.804Z,11.70
2022-10-31T11:03:09.547Z,11.47
2022-10-31T11:05:43.832Z,11.73
2022-10-31T11:08:13.269Z,11.68
2022-10-31T11:10:42.246Z,10.48
2022-10-31T11:13:25.811Z,9.82
2022-10-31T11:16:02.447Z,10.40
2022-10-31T11:18:38.983Z,10.80
2022-10-31T11:21:22.864Z,9.18
2022-10-31T11:23:51.764Z,9.88
2022-10-31T11:26:22.957Z,10.55
2022-10-31T11:29:05.173Z,9.63
2022-10-31T11:31:37.372Z,9.60
2022-10-31T11:34:23.784Z,9.13
2022-10-31T11:36:54.100Z,9.13
2022-10-31T11:39:25.953Z,10.50
2022-10-31T11:41:56.658Z,9.70
2022-10-31T11:44:31.073Z,9.50
2022-10-31T11:47:03.562Z,10.70
2022-10-31T11:49:37.069Z,11.48
2022-10-31T11:52:10.804Z,11.50
2022-10-31T11:54:51.197Z,10.88
2022-10-31T11:57:30.853Z,12.77
2022-10-31T12:00:04.487Z,11.95
2022-10-31T12:02:33.891Z,12.57
2022-10-31T12:05:22.728Z,12.35
2022-10-31T12:08:03.444Z,13.15
2022-10-31T12:10:43.533Z,14.35
2022-10-31T12:13:39.235Z,14.18
2022-10-31T12:16:23.333Z,14.35
2022-10-31T12:19:07.647Z,14.65
2022-10-31T12:22:04.468Z,13.93
2022-10-31T12:24:50.099Z,14.73
2022-10-31T12:27:32.279Z,15.90
2022-10-31T12:30:21.805Z,15.13
2022-10-31T12:33:32.461Z,15.98
2022-10-31T12:36:17.532Z,15.98
2022-10-31T12:39:36.670Z,15.55
2022-10-31T12:42:20.801Z,15.20
2022-10-31T12:45:16.296Z,14.60
2022-10-31T12:48:12.186Z,15.20
2022-10-31T12:50:58.833Z,15.65
2022-10-31T12:53:58.712Z,15.75
2022-10-31T12:56:48.245Z,16.10
2022-10-31T12:59:33.454Z,16.98
2022-10-31T13:02:13.499Z,16.65
2022-10-31T13:04:50.129Z,16.75
2022-10-31T13:07:32.526Z,17.05
2022-10-31T13:10:10.128Z,17.20
2022-10-31T13:12:42.119Z,19.08
2022-10-31T13:15:21.621Z,19.13
2022-10-31T13:17:59.311Z,18.33
2022-10-31T13:20:32.708Z,19.73
2022-10-31T13:23:30.004Z,19.00
2022-10-31T13:26:13.046Z,19.23
2022-10-31T13:33:51.731Z,19.23
2022-10-31T13:36:33.465Z,20.58
2022-10-31T13:39:19.516Z,21.17
2022-10-31T13:41:54.400Z,21.02
2022-10-31T13:44:37.434Z,21.63
2022-10-31T13:47:30.777Z,21.65
2022-10-31T13:50:28.426Z,20.63
2022-10-31T13:53:15.915Z,21.70
2022-10-31T13:55:47.530Z,21.92
2022-10-31T13:58:27.312Z,21.60
2022-10-31T14:01:20.100Z,19.55
2022-10-31T14:04:14.909Z,18.05
2022-10-31T14:06:59.614Z,17.90
2022-10-31T14:09:33.445Z,18.50
2022-10-31T14:12:09.640Z,18.38
2022-10-31T14:14:50.470Z,18.05
2022-10-31T14:17:49.908Z,19.60
2022-10-31T14:20:35.090Z,20.83
2022-10-31T14:23:16.524Z,20.30
2022-10-31T14:25:46.456Z,20.23
2022-10-31T14:28:34.378Z,20.55
2022-10-31T14:31:03.384Z,20.92
2022-10-31T14:33:35.644Z,20.35
2022-10-31T14:36:19.750Z,20.58
2022-10-31T14:39:00.578Z,20.00
2022-10-31T14:41:50.859Z,20.33
2022-10-31T14:45:02.956Z,20.88
2022-10-31T14:47:48.036Z,20.08
2022-10-31T14:50:53.739Z,20.10
2022-10-31T14:53:36.942Z,19.60
2022-10-31T14:56:13.461Z,19.80
2022-10-31T14:58:48.423Z,20.63
2022-10-31T15:01:27.661Z,19.45
2022-10-31T15:04:24.355Z,20.05
2022-10-31T15:07:04.420Z,20.05
2022-10-31T15:09:37.004Z,20.77
2022-10-31T15:12:27.007Z,21.02
2022-10-31T15:15:00.193Z,21.30
2022-10-31T15:17:32.650Z,21.35
2022-10-31T15:20:13.724Z,22.27
2022-10-31T15:22:44.178Z,21.23
2022-10-31T15:25:22.161Z,21.00
2022-10-31T15:27:53.070Z,20.15
2022-10-31T15:30:27.005Z,21.48
2022-10-31T15:32:59.435Z,22.38
2022-10-31T15:35:30.734Z,21.83
2022-10-31T15:38:05.400Z,21.17
2022-10-31T15:40:34.550Z,20.52
2022-10-31T15:43:08.866Z,21.20
2022-10-31T15:45:37.948Z,21.60
2022-10-31T15:48:25.969Z,22.13
2022-10-31T15:50:58.577Z,20.50
2022-10-31T15:53:40.866Z,22.40
2022-10-31T15:56:17.180Z,22.35
2022-10-31T15:58:48.684Z,20.52
2022-10-31T16:01:26.881Z,22.20
2022-10-31T16:04:24.334Z,23.33
2022-10-31T16:07:04.013Z,22.35
2022-10-31T16:09:35.979Z,24.45
2022-10-31T16:12:07.044Z,23.80
2022-10-31T16:14:41.400Z,24.00
2022-10-31T16:17:15.548Z,25.08
2022-10-31T16:19:56.005Z,24.25
2022-10-31T16:22:34.517Z,24.08
2022-10-31T16:25:12.711Z,25.02
2022-10-31T16:27:53.912Z,23.00
2022-10-31T16:30:47.943Z,24.40
2022-10-31T16:33:29.506Z,25.13
2022-10-31T16:36:30.089Z,22.92
2022-10-31T16:38:54.867Z,24.27
2022-10-31T16:41:28.884Z,23.40
2022-10-31T16:43:57.830Z,25.17
2022-10-31T16:46:30.716Z,25.00
2022-10-31T16:49:00.997Z,25.20
2022-10-31T16:51:42.828Z,24.50
2022-10-31T16:54:12.133Z,23.88
2022-10-31T16:56:44.605Z,25.60
2022-10-31T16:59:16.508Z,25.58
2022-10-31T17:01:51.309Z,24.20
2022-10-31T17:04:20.245Z,25.45
2022-10-31T17:06:54.812Z,24.02
2022-10-31T17:09:34.066Z,25.23
2022-10-31T17:12:09.848Z,24.13
2022-10-31T17:14:48.273Z,23.65
2022-10-31T17:17:18.441Z,24.63
2022-10-31T17:19:49.000Z,24.70
2022-10-31T17:22:17.911Z,23.85
2022-10-31T17:24:47.370Z,23.35
2022-10-31T17:27:19.348Z,24.98
2022-10-31T17:29:48.360Z,24.02
2022-10-31T17:32:17.339Z,24.27
2022-10-31T17:34:50.374Z,23.90
2022-10-31T17:37:19.447Z,23.85
2022-10-31T17:39:48.825Z,25.77
2022-10-31T17:42:19.145Z,24.63
2022-10-31T17:45:04.458Z,24.17
2022-10-31T17:47:34.218Z,25.83
2022-10-31T17:50:07.219Z,24.23
2022-10-31T17:52:35.676Z,25.98
2022-10-31T17:55:04.807Z,27.92
2022-10-31T17:57:39.518Z,25.40
2022-10-31T18:00:15.601Z,26.45
2022-10-31T18:02:44.218Z,26.45
2022-10-31T18:05:13.241Z,26.75
2022-10-31T18:07:43.558Z,26.75
2022-10-31T18:10:12.447Z,27.80
2022-10-31T18:12:43.300Z,27.45
2022-10-31T18:15:13.201Z,28.45
2022-10-31T18:17:44.663Z,28.42
2022-10-31T18:20:13.948Z,29.17
2022-10-31T18:22:43.261Z,28.25
2022-10-31T18:25:12.375Z,28.45
2022-10-31T18:27:46.268Z,28.58
2022-10-31T18:30:18.112Z,30.48
2022-10-31T18:32:59.223Z,29.83
2022-10-31T18:35:32.897Z,31.15
2022-10-31T18:38:09.444Z,31.80
2022-10-31T18:40:38.810Z,28.20
2022-10-31T18:43:11.258Z,32.15
2022-10-31T18:45:49.525Z,29.45
2022-10-31T18:48:21.289Z,30.02
2022-10-31T18:50:59.388Z,29.13
2022-10-31T18:53:28.628Z,29.30
2022-10-31T18:55:59.783Z,28.67
2022-10-31T18:58:30.996Z,29.05
2022-10-31T19:01:02.252Z,28.80
2022-10-31T19:03:32.279Z,28.58
2022-10-31T19:06:03.012Z,28.05
2022-10-31T19:08:33.012Z,29.42
2022-10-31T19:11:09.182Z,28.58
2022-10-31T19:13:40.535Z,27.17
2022-10-31T19:16:15.694Z,27.70
2022-10-31T19:18:45.565Z,26.70
2022-10-31T19:21:16.888Z,27.95
2022-10-31T19:23:49.780Z,26.77
2022-10-31T19:26:18.797Z,27.10
2022-10-31T19:28:49.721Z,26.10
2022-10-31T19:31:19.043Z,26.60
2022-10-31T19:33:50.016Z,26.13
2022-10-31T19:36:21.222Z,25.90
2022-10-31T19:38:53.221Z,24.92
2022-10-31T19:41:27.668Z,25.33
2022-10-31T19:44:01.259Z,24.20
2022-10-31T19:46:52.360Z,25.55
2022-10-31T19:49:23.217Z,23.30
2022-10-31T19:51:52.396Z,23.63
2022-10-31T19:54:22.977Z,22.75
2022-10-31T19:56:52.398Z,23.23
2022-10-31T19:59:23.637Z,23.08
2022-10-31T20:01:52.578Z,23.85
2022-10-31T20:04:26.020Z,22.10
2022-10-31T20:06:56.003Z,23.63
2022-10-31T20:09:47.479Z,22.45
2022-10-31T20:12:16.840Z,23.55
2022-10-31T20:17:34.829Z,23.30
2022-10-31T20:20:08.714Z,19.48
2022-10-31T20:22:38.188Z,21.02
2022-10-31T20:25:08.526Z,20.55
2022-10-31T20:27:37.282Z,18.63
2022-10-31T20:30:12.373Z,18.80
2022-10-31T20:32:43.446Z,17.95
2022-10-31T20:35:15.390Z,18.92
2022-10-31T20:37:44.384Z,18.05
2022-10-31T20:40:13.871Z,16.80
2022-10-31T20:42:45.789Z,16.88
2022-10-31T20:45:16.307Z,17.65
2022-10-31T20:47:48.628Z,16.08
2022-10-31T20:50:19.666Z,15.55
2022-10-31T20:52:48.572Z,14.85
2022-10-31T20:55:18.741Z,14.90
2022-10-31T20:57:49.605Z,14.75
2022-10-31T21:03:31.922Z,14.00
2022-10-31T21:06:04.167Z,12.87
2022-10-31T21:11:11.265Z,12.35
2022-10-31T21:13:43.213Z,11.82
2022-10-31T21:16:18.042Z,12.07
2022-10-31T21:18:49.331Z,12.38
2022-10-31T21:21:21.485Z,11.05
2022-10-31T21:23:55.197Z,10.70
2022-10-31T21:26:27.959Z,10.38
2022-10-31T21:28:59.490Z,10.88
2022-10-31T21:31:29.728Z,10.10
2022-10-31T21:33:59.611Z,10.65
2022-10-31T21:36:29.751Z,10.07
2022-10-31T21:39:01.515Z,10.50
2022-10-31T21:41:31.222Z,8.73
2022-10-31T21:44:01.873Z,9.77
2022-10-31T21:46:33.793Z,9.20
2022-10-31T21:49:05.010Z,8.75
2022-10-31T21:51:37.070Z,8.10
2022-10-31T21:54:25.461Z,8.25
2022-10-31T21:56:57.124Z,7.75
2022-10-31T21:59:28.487Z,8.50
2022-10-31T22:02:00.984Z,7.68
2022-10-31T22:04:29.915Z,8.63
2022-10-31T22:06:58.463Z,7.68
2022-10-31T22:09:27.814Z,8.25
2022-10-31T22:11:57.614Z,8.50
2022-10-31T22:14:26.834Z,7.93
2022-10-31T22:16:57.846Z,8.02
2022-10-31T22:19:29.335Z,8.63
2022-10-31T22:22:00.164Z,8.27
2022-10-31T22:24:29.944Z,8.32
2022-10-31T22:26:59.072Z,7.88
2022-10-31T22:29:29.153Z,7.70
2022-10-31T22:32:01.973Z,6.88
2022-10-31T22:34:31.348Z,7.65
2022-10-31T22:37:02.332Z,7.22
2022-10-31T22:39:31.421Z,7.43
2022-10-31T22:42:00.131Z,7.03
2022-10-31T22:44:29.726Z,6.70
2022-10-31T22:47:00.905Z,7.15
2022-10-31T22:49:30.408Z,7.43
2022-10-31T22:52:03.783Z,6.75
2022-10-31T22:54:43.988Z,7.50
2022-10-31T22:57:15.412Z,7.03
2022-10-31T22:59:45.117Z,6.88
2022-10-31T23:02:17.473Z,7.15
2022-10-31T23:04:47.948Z,6.65
2022-10-31T23:07:23.042Z,7.00
2022-10-31T23:09:55.226Z,7.30
2022-10-31T23:12:42.541Z,6.72
2022-10-31T23:15:13.344Z,6.63
2022-10-31T23:17:54.826Z,6.72
2022-10-31T23:20:25.853Z,6.20
2022-10-31T23:22:57.443Z,6.78
2022-10-31T23:25:45.419Z,6.35
2022-10-31T23:28:14.952Z,6.72
2022-10-31T23:30:48.015Z,6.78
2022-10-31T23:33:20.864Z,7.38
2022-10-31T23:35:49.454Z,7.10
2022-10-31T23:38:25.320Z,6.95
2022-10-31T23:40:54.263Z,7.10
2022-10-31T23:43:23.149Z,6.97
2022-10-31T23:45:52.169Z,7.28
2022-10-31T23:48:23.935Z,7.50
2022-10-31T23:50:53.750Z,6.88
2022-10-31T23:53:23.470Z,7.13
2022-10-31T23:55:58.285Z,7.63
2022-10-31T23:58:27.260Z,7.28
